Time;durP1;ratioP1;P1;durP2;ratioP2;P2;SDS_P1;SDS_P2;PMS_P1;PMS_P2;Temp;Humidity;BMP_temperature;BMP_pressure;BME280_temperature;BME280_humidity;BME280_pressure;Samples;Min_cycle;Max_cycle;Signal;HPM_P1;HPM_P2
2022/11/20 00:01:21;;;;;;;8.63;4.40;;;;;;;6.74;78.10;99639.72;4991166;28;20057;-55
2022/11/20 00:03:48;;;;;;;7.75;3.55;;;;;;;6.66;77.65;99635.38;4979739;28;20046;-56
2022/11/20 00:06:16;;;;;;;7.25;3.50;;;;;;;6.69;77.02;99635.41;4987198;28;20533;-55
2022/11/20 00:08:44;;;;;;;6.95;3.17;;;;;;;6.71;77.09;99637.13;4983484;28;20086;-54
2022/11/20 00:11:13;;;;;;;9.05;3.40;;;;;;;6.67;78.15;99624.25;4979038;28;20149;-55
2022/11/20 00:13:43;;;;;;;8.85;3.53;;;;;;;6.68;78.10;99628.56;4985506;28;20058;-55
2022/11/20 00:16:12;;;;;;;5.18;3.08;;;;;;;6.69;78.25;99630.25;4989262;28;20085;-56
2022/11/20 00:18:38;;;;;;;9.35;2.78;;;;;;;6.66;76.91;99625.09;4988154;28;20149;-54
2022/11/20 00:21:10;;;;;;;5.38;2.30;;;;;;;6.67;76.85;99616.53;4977487;28;20700;-55
2022/11/20 00:23:36;;;;;;;8.40;2.88;;;;;;;6.67;76.55;99616.53;4976866;28;20225;-54
2022/11/20 00:26:05;;;;;;;10.50;3.25;;;;;;;6.64;76.56;99611.38;4977485;28;20054;-56
2022/11/20 00:28:32;;;;;;;7.60;1.98;;;;;;;6.62;77.85;99602.75;4980922;28;20638;-56
2022/11/20 00:31:09;;;;;;;5.03;3.00;;;;;;;6.57;76.71;99594.16;4980009;28;20050;-55
2022/11/20 00:33:36;;;;;;;8.15;2.63;;;;;;;6.58;77.45;99590.72;4987681;28;20069;-56
2022/11/20 00:36:07;;;;;;;8.95;3.33;;;;;;;6.56;76.79;99589.88;4978709;28;20129;-56
2022/11/20 00:38:34;;;;;;;11.70;3.85;;;;;;;6.57;76.90;99589.03;4980345;28;20112;-52
2022/11/20 00:41:04;;;;;;;3.72;2.90;;;;;;;6.55;76.32;99580.41;4984011;28;20135;-55
2022/11/20 00:43:31;;;;;;;8.68;3.70;;;;;;;6.57;77.44;99576.16;4983265;28;20054;-57
2022/11/20 00:45:59;;;;;;;8.85;3.20;;;;;;;6.58;76.17;99570.16;4984001;28;20050;-55
2022/11/20 00:48:26;;;;;;;7.72;3.67;;;;;;;6.56;77.33;99571.88;4982483;28;20086;-55
2022/11/20 00:50:53;;;;;;;7.85;3.78;;;;;;;6.55;76.62;99570.13;4981044;28;20130;-55
2022/11/20 00:53:20;;;;;;;13.35;3.95;;;;;;;6.56;77.67;99577.00;4980214;28;20132;-56
2022/11/20 00:56:05;;;;;;;9.18;3.20;;;;;;;6.55;78.04;99570.13;4980307;28;20134;-53
2022/11/20 00:58:35;;;;;;;8.10;3.45;;;;;;;6.58;77.66;99572.72;4977407;28;20054;-57
2022/11/20 01:01:09;;;;;;;9.70;3.63;;;;;;;6.59;77.61;99566.75;4979605;28;20125;-52
2022/11/20 01:03:39;;;;;;;8.00;3.85;;;;;;;6.59;76.61;99559.03;4977460;28;20046;-54
2022/11/20 01:08:49;;;;;;;6.43;3.85;;;;;;;6.59;77.84;99556.44;5007826;27;20407;-55
2022/11/20 01:11:20;;;;;;;8.73;3.05;;;;;;;6.55;77.82;99550.41;5014804;28;20101;-54
2022/11/20 01:13:49;;;;;;;7.60;4.05;;;;;;;6.58;77.55;99549.56;5018215;28;20074;-55
2022/11/20 01:16:20;;;;;;;8.80;2.17;;;;;;;6.59;76.53;99550.44;4981151;28;20150;-55
2022/11/20 01:18:49;;;;;;;8.10;3.58;;;;;;;6.54;77.61;99537.53;5018796;28;20125;-56
2022/11/20 01:23:55;;;;;;;4.10;2.35;;;;;;;6.46;77.10;99534.06;5009613;28;20411;-54
2022/11/20 01:26:25;;;;;;;8.23;3.22;;;;;;;6.55;76.40;99524.69;5001010;28;20046;-53
2022/11/20 01:28:53;;;;;;;10.25;2.70;;;;;;;6.55;77.64;99513.50;4996485;28;20069;-54
2022/11/20 01:31:22;;;;;;;6.95;2.17;;;;;;;6.55;77.58;99518.66;5016186;28;20064;-54
2022/11/20 01:33:52;;;;;;;5.88;2.20;;;;;;;6.52;76.99;99516.09;5000363;28;20052;-56
2022/11/20 01:36:21;;;;;;;8.23;2.30;;;;;;;6.55;77.03;99509.25;5028121;28;20108;-57
2022/11/20 01:38:47;;;;;;;5.35;2.05;;;;;;;6.51;76.91;99512.66;5008154;28;20654;-56
2022/11/20 01:43:20;;;;;;;8.50;2.38;;;;;;;6.56;76.94;99505.81;5019698;28;20037;-54
2022/11/20 01:44:04;;;;;;;7.38;2.22;;;;;;;6.56;77.18;99505.81;5015605;28;20050;-56
2022/11/20 01:46:34;;;;;;;9.02;2.10;;;;;;;6.59;76.28;99497.28;5019731;28;20703;-55
2022/11/20 01:49:10;;;;;;;7.55;2.85;;;;;;;6.55;77.39;99490.34;5016598;28;20133;-55
2022/11/20 01:51:58;;;;;;;7.32;2.45;;;;;;;6.53;76.16;99494.66;5019310;28;20727;-55
2022/11/20 01:54:38;;;;;;;6.90;2.17;;;;;;;6.52;75.77;99498.09;5014522;28;20073;-53
2022/11/20 01:57:08;;;;;;;5.93;2.20;;;;;;;6.56;75.84;99489.53;5012017;28;20176;-54
2022/11/20 01:59:41;;;;;;;8.35;2.55;;;;;;;6.53;76.09;99492.06;5015023;28;20510;-54
2022/11/20 02:02:07;;;;;;;7.22;2.92;;;;;;;6.55;76.17;99488.66;5013801;28;20138;-55
2022/11/20 02:04:35;;;;;;;4.28;2.20;;;;;;;6.49;76.12;99482.63;5016535;28;20046;-54
2022/11/20 02:07:04;;;;;;;9.10;3.17;;;;;;;6.48;77.32;99486.91;5019107;28;20093;-54
2022/11/20 02:09:31;;;;;;;10.07;3.20;;;;;;;6.48;75.95;99481.75;5018520;28;20053;-56
2022/11/20 02:11:59;;;;;;;9.38;3.72;;;;;;;6.49;76.63;99478.31;5019966;28;20072;-54
2022/11/20 02:14:27;;;;;;;8.43;2.47;;;;;;;6.45;76.52;99476.59;5020568;28;20042;-56
2022/11/20 02:16:55;;;;;;;7.30;2.38;;;;;;;6.43;77.45;99474.00;5017439;28;20057;-56
2022/11/20 02:19:27;;;;;;;6.90;3.17;;;;;;;6.36;77.48;99462.00;5017991;28;20042;-57
2022/11/20 02:24:30;;;;;;;8.35;2.60;;;;;;;6.27;78.95;99461.94;5022754;28;20906;-58
2022/11/20 02:27:04;;;;;;;5.72;2.80;;;;;;;6.22;78.78;99450.75;4999019;28;20464;-56
2022/11/20 02:34:57;;;;;;;6.53;2.78;;;;;;;6.21;78.57;99446.47;5077294;27;20419;-57
2022/11/20 02:37:32;;;;;;;6.75;2.13;;;;;;;6.21;80.01;99446.47;5057916;28;20088;-56
2022/11/20 02:39:58;;;;;;;10.10;3.00;;;;;;;6.19;80.04;99432.75;5056684;28;20117;-56
2022/11/20 02:42:25;;;;;;;7.15;2.25;;;;;;;6.12;80.43;99432.69;5057776;28;20076;-56
2022/11/20 02:44:52;;;;;;;8.65;3.05;;;;;;;6.12;81.06;99419.84;5055278;28;20099;-58
2022/11/20 02:47:18;;;;;;;8.65;2.42;;;;;;;6.12;79.48;99417.25;5053706;28;20784;-57
2022/11/20 02:49:45;;;;;;;11.05;3.53;;;;;;;6.17;79.60;99407.00;5056410;28;20072;-58
2022/11/20 02:52:11;;;;;;;7.22;3.40;;;;;;;6.17;79.27;99402.75;5053742;28;20123;-57
2022/11/20 02:54:38;;;;;;;7.90;2.45;;;;;;;6.09;81.16;99401.84;5054242;28;20072;-56
2022/11/20 02:57:04;;;;;;;7.95;2.53;;;;;;;6.17;79.69;99395.03;5048479;28;20540;-57
2022/11/20 02:59:31;;;;;;;7.55;2.50;;;;;;;6.17;80.04;99389.88;5055108;28;20163;-55
2022/11/20 03:01:58;;;;;;;8.20;2.63;;;;;;;6.17;80.30;99379.59;5052730;28;20060;-58
2022/11/20 03:04:24;;;;;;;4.03;1.85;;;;;;;6.15;80.82;99377.88;5051556;28;20116;-58
2022/11/20 03:06:51;;;;;;;6.32;2.58;;;;;;;6.09;80.65;99371.00;5058686;28;20184;-58
2022/11/20 03:09:17;;;;;;;5.13;1.95;;;;;;;6.15;80.00;99381.28;5048391;28;20128;-58
2022/11/20 03:11:44;;;;;;;6.45;1.88;;;;;;;6.10;79.52;99371.84;5053497;28;20064;-57
2022/11/20 03:14:11;;;;;;;6.63;2.13;;;;;;;6.13;80.66;99367.59;5053125;28;20068;-59
2022/11/20 03:16:38;;;;;;;2.70;1.20;;;;;;;6.09;81.15;99365.84;5047072;28;20048;-56
2022/11/20 03:19:04;;;;;;;8.60;1.90;;;;;;;6.08;79.96;99363.28;5051472;28;20045;-58
2022/11/20 03:21:33;;;;;;;4.32;1.92;;;;;;;6.10;81.19;99357.28;5055534;28;20127;-59
2022/11/20 03:24:00;;;;;;;4.68;1.83;;;;;;;6.11;80.35;99353.00;5038715;28;20608;-57
2022/11/20 03:26:27;;;;;;;7.28;1.98;;;;;;;6.13;81.23;99352.16;5042940;28;20065;-58
2022/11/20 03:28:56;;;;;;;4.10;1.90;;;;;;;6.11;80.24;99337.59;5041562;28;20068;-55
2022/11/20 03:31:26;;;;;;;3.97;1.67;;;;;;;6.06;79.85;99337.56;5054208;28;20041;-58
2022/11/20 03:33:53;;;;;;;3.35;1.52;;;;;;;6.00;81.11;99324.63;5060100;28;20216;-57
2022/11/20 03:36:20;;;;;;;3.42;1.45;;;;;;;6.00;80.40;99327.19;5055082;28;20509;-55
2022/11/20 03:38:47;;;;;;;5.45;1.02;;;;;;;6.04;80.08;99316.97;5041402;28;20122;-57
2022/11/20 03:41:20;;;;;;;3.55;1.90;;;;;;;6.08;81.36;99317.00;5042140;28;20068;-56
2022/11/20 03:43:57;;;;;;;3.78;1.75;;;;;;;6.02;81.77;99307.50;5042207;28;20057;-58
2022/11/20 03:46:24;;;;;;;5.03;1.30;;;;;;;5.97;82.33;99304.91;5034986;28;20408;-56
2022/11/20 03:48:52;;;;;;;8.38;2.08;;;;;;;6.02;81.80;99297.22;5043128;28;20073;-55
2022/11/20 03:51:22;;;;;;;6.88;2.10;;;;;;;5.99;81.47;99292.06;5041610;28;20064;-57
2022/11/20 03:53:49;;;;;;;;;;;;;;;5.88;82.95;99285.16;5038670;28;20462;-57
2022/11/20 03:56:17;;;;;;;6.28;1.63;;;;;;;5.95;81.65;99285.19;5039389;28;19960;-55
2022/11/20 03:58:44;;;;;;;4.03;1.42;;;;;;;5.91;82.06;99269.75;5045506;28;20476;-56
2022/11/20 04:01:14;;;;;;;4.30;1.60;;;;;;;5.90;82.33;99272.31;5029706;28;20163;-57
2022/11/20 04:03:41;;;;;;;4.53;1.42;;;;;;;5.92;83.04;99261.19;5035071;28;20048;-56
2022/11/20 04:06:11;;;;;;;2.30;1.30;;;;;;;5.88;83.84;99259.47;5041291;28;20380;-59
2022/11/20 04:08:38;;;;;;;5.13;1.52;;;;;;;5.90;83.34;99255.19;5038675;28;20049;-58
2022/11/20 04:13:48;;;;;;;2.05;1.23;;;;;;;5.92;83.77;99243.19;5082544;27;20392;-56
2022/11/20 04:16:16;;;;;;;5.32;1.38;;;;;;;5.90;83.18;99241.47;5058762;28;20059;-56
2022/11/20 04:18:43;;;;;;;3.85;0.95;;;;;;;5.88;83.44;99244.03;5070883;28;20109;-55
2022/11/20 04:21:10;;;;;;;5.18;1.45;;;;;;;5.93;82.58;99236.34;5070269;28;20399;-54
2022/11/20 04:23:37;;;;;;;2.67;1.08;;;;;;;5.95;83.35;99236.38;5056269;28;21785;-56
2022/11/20 04:28:40;;;;;;;3.00;1.95;;;;;;;6.02;83.56;99230.38;5096347;27;20392;-56
2022/11/20 04:31:10;;;;;;;4.47;1.92;;;;;;;5.99;84.43;99220.97;5056742;28;20060;-57
2022/11/20 04:33:37;;;;;;;3.70;1.45;;;;;;;6.05;83.73;99225.28;5058974;28;20584;-55
2022/11/20 04:36:10;;;;;;;4.25;1.73;;;;;;;6.00;82.82;99207.25;5056841;28;20057;-57
2022/11/20 04:38:37;;;;;;;3.20;1.05;;;;;;;5.96;84.19;99204.66;5058261;28;20104;-56
2022/11/20 04:41:07;;;;;;;7.25;1.52;;;;;;;6.06;84.47;99203.88;5054146;28;20040;-58
2022/11/20 04:43:33;;;;;;;5.93;1.23;;;;;;;6.06;83.37;99206.44;5057491;28;20059;-55
2022/11/20 04:46:00;;;;;;;2.97;1.63;;;;;;;6.08;84.52;99209.00;5051394;28;20126;-56
2022/11/20 04:48:29;;;;;;;3.35;1.27;;;;;;;6.02;84.98;99199.53;5054146;28;20075;-55
2022/11/20 04:50:55;;;;;;;3.85;2.00;;;;;;;6.08;83.52;99199.56;5049857;28;20136;-57
2022/11/20 04:53:23;;;;;;;2.28;1.13;;;;;;;6.08;84.34;99209.84;5055127;28;20076;-57
2022/11/20 04:55:50;;;;;;;4.38;2.05;;;;;;;6.21;83.22;99204.75;5050871;28;20749;-57
2022/11/20 04:58:17;;;;;;;4.07;1.58;;;;;;;6.22;82.81;99199.63;5051480;28;20202;-55
2022/11/20 05:00:43;;;;;;;3.42;1.75;;;;;;;6.23;84.21;99197.88;5057010;28;20053;-55
2022/11/20 05:03:10;;;;;;;1.65;1.00;;;;;;;6.27;83.98;99199.59;5054914;28;20647;-56
2022/11/20 05:05:36;;;;;;;3.15;1.80;;;;;;;6.26;83.12;99179.88;5053943;28;20072;-55
2022/11/20 05:08:03;;;;;;;4.00;1.90;;;;;;;6.33;84.16;99184.19;5051965;28;20048;-55
2022/11/20 05:10:30;;;;;;;5.55;2.38;;;;;;;6.31;84.09;99180.75;5052096;28;20121;-56
2022/11/20 05:12:57;;;;;;;6.72;2.40;;;;;;;6.33;84.36;99186.75;5054040;28;20072;-57
2022/11/20 05:15:23;;;;;;;6.70;2.72;;;;;;;6.37;84.12;99185.91;5053388;28;20045;-55
2022/11/20 05:17:51;;;;;;;5.38;2.42;;;;;;;6.41;82.87;99187.63;5056407;28;20033;-57
2022/11/20 05:20:18;;;;;;;7.18;2.92;;;;;;;6.41;82.56;99182.47;5053684;28;20155;-56
2022/11/20 05:22:45;;;;;;;8.02;4.72;;;;;;;6.47;83.96;99180.75;5051056;28;20462;-56
2022/11/20 05:25:12;;;;;;;6.85;3.35;;;;;;;6.49;82.38;99179.03;5053281;28;20081;-58
2022/11/20 05:27:39;;;;;;;6.90;3.20;;;;;;;6.55;83.45;99179.03;5057073;28;20135;-57
2022/11/20 05:30:06;;;;;;;9.57;3.63;;;;;;;6.55;82.32;99163.59;5053668;28;20099;-57
2022/11/20 05:32:33;;;;;;;8.77;3.47;;;;;;;6.60;82.29;99171.31;5053668;28;20055;-55
2022/11/20 05:35:00;;;;;;;8.30;3.28;;;;;;;6.56;83.74;99165.31;5051308;28;20068;-54
2022/11/20 05:37:26;;;;;;;9.38;3.75;;;;;;;6.58;83.04;99168.75;5053123;28;20048;-57
2022/11/20 05:39:53;;;;;;;6.45;3.58;;;;;;;6.59;82.98;99165.34;5040121;28;20049;-57
2022/11/20 05:42:35;;;;;;;6.97;3.22;;;;;;;6.61;84.06;99168.75;5043936;28;20142;-56
2022/11/20 05:45:03;;;;;;;9.18;4.00;;;;;;;6.67;83.00;99163.59;5039668;28;20370;-58
2022/11/20 05:47:33;;;;;;;7.63;3.30;;;;;;;6.69;83.49;99164.44;5038135;28;20080;-53
2022/11/20 05:49:59;;;;;;;6.15;3.13;;;;;;;6.71;83.65;99161.88;5040136;28;20556;-57
2022/11/20 05:52:30;;;;;;;6.93;3.28;;;;;;;6.77;83.03;99159.31;5040486;28;20136;-57
2022/11/20 05:54:57;;;;;;;5.65;3.05;;;;;;;6.80;83.56;99159.28;5038063;28;20070;-55
2022/11/20 05:57:23;;;;;;;9.70;3.03;;;;;;;6.84;82.97;99160.16;5043731;28;20083;-55
2022/11/20 05:59:50;;;;;;;6.13;3.35;;;;;;;6.89;83.35;99158.41;5040418;28;20065;-56
2022/11/20 06:02:17;;;;;;;8.25;3.38;;;;;;;6.89;83.05;99152.41;5029570;28;20095;-58
2022/11/20 06:04:43;;;;;;;8.10;3.47;;;;;;;6.93;83.17;99156.69;5041642;28;20041;-57
2022/11/20 06:07:10;;;;;;;8.65;3.10;;;;;;;6.97;83.30;99144.66;5038601;28;20107;-57
2022/11/20 06:09:37;;;;;;;8.52;3.45;;;;;;;7.03;82.86;99149.81;5039828;28;20507;-56
2022/11/20 06:12:03;;;;;;;12.40;4.93;;;;;;;7.07;83.44;99141.22;5037492;28;20392;-56
2022/11/20 06:14:30;;;;;;;9.57;4.05;;;;;;;7.12;83.27;99149.78;5045715;28;20512;-55
2022/11/20 06:16:57;;;;;;;7.35;3.45;;;;;;;7.14;82.29;99142.91;5039066;28;20083;-58
2022/11/20 06:19:23;;;;;;;8.55;3.75;;;;;;;7.20;82.33;99148.03;5039944;28;20102;-58
2022/11/20 06:21:50;;;;;;;6.63;3.33;;;;;;;7.22;83.36;99140.28;5033645;28;20131;-59
2022/11/20 06:24:17;;;;;;;7.00;2.45;;;;;;;7.24;81.93;99137.72;5034646;28;20049;-57
2022/11/20 06:26:44;;;;;;;7.88;2.72;;;;;;;7.27;82.05;99138.56;5040942;28;20060;-58
2022/11/20 06:29:11;;;;;;;8.68;3.75;;;;;;;7.29;83.06;99131.69;5037158;28;20441;-57
2022/11/20 06:31:37;;;;;;;5.90;2.42;;;;;;;7.31;82.56;99144.56;5041547;28;20065;-58
2022/11/20 06:34:06;;;;;;;7.45;3.13;;;;;;;7.31;82.21;99131.69;5041416;28;20048;-56
2022/11/20 06:36:33;;;;;;;6.78;3.20;;;;;;;7.32;83.02;99123.09;5033326;28;20053;-58
2022/11/20 06:39:00;;;;;;;8.75;2.67;;;;;;;7.33;83.18;99125.66;5036732;28;20504;-56
2022/11/20 06:41:27;;;;;;;9.52;2.28;;;;;;;7.34;83.26;99129.09;5038549;28;20116;-58
2022/11/20 06:43:54;;;;;;;6.55;3.13;;;;;;;7.36;83.22;99124.78;5039761;28;20049;-57
2022/11/20 06:46:21;;;;;;;5.85;2.55;;;;;;;7.36;82.13;99117.06;5040455;28;20232;-58
2022/11/20 06:48:48;;;;;;;8.43;3.80;;;;;;;7.37;81.94;99130.78;5036894;28;20459;-57
2022/11/20 06:51:15;;;;;;;5.45;2.95;;;;;;;7.34;83.01;99123.94;5040060;28;20041;-57
2022/11/20 06:53:42;;;;;;;11.77;2.90;;;;;;;7.31;81.85;99129.97;5033861;28;20067;-57
2022/11/20 06:56:09;;;;;;;9.02;2.50;;;;;;;7.30;82.29;99137.69;5043084;28;20700;-58
2022/11/20 06:58:37;;;;;;;8.43;2.92;;;;;;;7.31;81.93;99145.44;5039890;28;20065;-58
2022/11/20 07:01:07;;;;;;;9.38;2.28;;;;;;;7.28;82.76;99137.69;5038622;28;20507;-57
2022/11/20 07:03:34;;;;;;;6.35;2.28;;;;;;;7.25;82.98;99140.28;5038621;28;20746;-58
2022/11/20 07:06:01;;;;;;;8.10;2.53;;;;;;;7.26;82.40;99141.16;5037291;28;20041;-58
2022/11/20 07:08:29;;;;;;;5.15;2.38;;;;;;;7.26;83.28;99149.72;5034993;28;20045;-58
2022/11/20 07:10:59;;;;;;;5.30;2.28;;;;;;;7.27;83.05;99148.88;5040052;28;20154;-57
2022/11/20 07:13:27;;;;;;;8.32;2.40;;;;;;;7.26;82.51;99156.59;5044625;28;20053;-56
2022/11/20 07:15:54;;;;;;;5.15;2.20;;;;;;;7.22;82.98;99154.91;5039226;28;20156;-56
2022/11/20 07:18:21;;;;;;;6.70;2.30;;;;;;;7.18;81.86;99154.91;5038841;28;20090;-56
2022/11/20 07:20:47;;;;;;;6.78;2.33;;;;;;;7.15;81.63;99160.06;5037538;28;20045;-57
2022/11/20 07:23:14;;;;;;;5.38;2.25;;;;;;;7.13;81.82;99156.63;5033287;28;20177;-57
2022/11/20 07:25:40;;;;;;;5.82;1.98;;;;;;;7.10;82.86;99161.81;5033086;28;20133;-57
2022/11/20 07:28:07;;;;;;;6.88;2.00;;;;;;;7.10;81.84;99164.38;5035420;28;20121;-58
2022/11/20 07:30:34;;;;;;;4.70;2.92;;;;;;;7.09;82.61;99162.66;5039990;28;20083;-55
2022/11/20 07:33:00;;;;;;;4.40;1.25;;;;;;;7.07;82.32;99162.66;5070470;28;20125;-55
2022/11/20 07:35:27;;;;;;;5.63;1.30;;;;;;;7.06;82.77;99165.25;5077055;28;20131;-58
2022/11/20 07:37:53;;;;;;;4.30;2.33;;;;;;;7.06;81.67;99167.84;5078697;28;20043;-58
2022/11/20 07:40:20;;;;;;;8.18;1.92;;;;;;;7.04;81.61;99170.41;5077103;28;20121;-57
2022/11/20 07:45:24;;;;;;;9.82;3.17;;;;;;;7.04;82.02;99174.69;5046231;28;20439;-58
2022/11/20 07:47:51;;;;;;;6.20;3.25;;;;;;;7.04;82.08;99172.13;5023046;28;20045;-58
2022/11/20 07:50:18;;;;;;;6.47;3.50;;;;;;;7.04;82.37;99174.69;5012089;28;20046;-55
2022/11/20 07:52:45;;;;;;;7.88;3.15;;;;;;;7.05;81.69;99176.41;5006315;28;20074;-55
2022/11/20 07:55:13;;;;;;;10.90;5.45;;;;;;;7.06;81.82;99189.28;5014367;28;20045;-59
2022/11/20 07:57:39;;;;;;;42.78;16.10;;;;;;;7.06;82.61;99184.13;5010719;28;20046;-57
2022/11/20 08:00:09;;;;;;;24.65;12.50;;;;;;;7.09;81.95;99190.97;5009751;28;20045;-57
2022/11/20 08:02:38;;;;;;;15.75;9.80;;;;;;;7.12;82.10;99196.13;5000030;28;20066;-58
2022/11/20 08:05:06;;;;;;;12.70;6.47;;;;;;;7.13;81.24;99194.41;5013790;28;20753;-59
2022/11/20 08:07:42;;;;;;;12.50;7.72;;;;;;;7.17;82.22;99199.53;5011980;28;20104;-57
2022/11/20 08:10:12;;;;;;;12.23;6.03;;;;;;;7.24;81.45;99209.84;5008272;28;20045;-57
2022/11/20 08:15:32;;;;;;;30.38;7.95;;;;;;;7.50;82.63;99209.75;5029910;28;20493;-58
2022/11/20 08:18:03;;;;;;;25.33;7.57;;;;;;;7.74;81.96;99214.81;5015053;28;20861;-57
2022/11/20 08:20:50;;;;;;;27.23;7.40;;;;;;;7.97;81.86;99212.09;5005875;28;20507;-57
2022/11/20 08:23:16;;;;;;;17.05;6.18;;;;;;;8.17;81.83;99219.72;5012831;28;20166;-57
2022/11/20 08:25:43;;;;;;;19.10;8.10;;;;;;;8.31;81.37;99221.38;5009423;28;20053;-58
2022/11/20 08:28:10;;;;;;;14.95;5.25;;;;;;;8.45;80.63;99219.53;5015203;28;20045;-59
2022/11/20 08:30:46;;;;;;;13.65;4.88;;;;;;;8.64;81.24;99224.59;5008076;28;20053;-56
2022/11/20 08:33:13;;;;;;;15.65;6.05;;;;;;;8.78;80.96;99211.56;5010470;28;20054;-59
2022/11/20 08:35:40;;;;;;;15.70;4.40;;;;;;;8.83;80.75;99211.53;5014849;28;20058;-59
2022/11/20 08:38:08;;;;;;;15.10;4.95;;;;;;;8.82;80.26;99217.56;5013914;28;20054;-58
2022/11/20 08:40:35;;;;;;;17.55;5.38;;;;;;;8.78;79.92;99211.56;5015921;28;20038;-57
2022/11/20 08:43:02;;;;;;;21.92;5.80;;;;;;;8.71;80.33;99215.94;5015579;28;20092;-57
2022/11/20 08:45:28;;;;;;;16.88;4.72;;;;;;;8.65;79.99;99215.97;5017394;28;20129;-58
2022/11/20 08:48:01;;;;;;;22.13;6.05;;;;;;;8.58;79.48;99209.19;5017173;28;20127;-59
2022/11/20 08:50:28;;;;;;;17.83;5.45;;;;;;;8.51;79.71;99205.72;5015105;28;20121;-56
2022/11/20 08:52:54;;;;;;;19.05;5.57;;;;;;;8.49;80.51;99204.91;5016291;28;20555;-59
2022/11/20 08:55:21;;;;;;;13.10;4.40;;;;;;;8.52;79.59;99206.59;5010921;28;20049;-58
2022/11/20 08:57:48;;;;;;;14.73;4.60;;;;;;;8.56;79.79;99213.47;4999994;28;20120;-59
2022/11/20 09:00:17;;;;;;;19.38;5.68;;;;;;;8.70;80.51;99219.41;4999195;28;20134;-59
2022/11/20 09:02:43;;;;;;;19.65;4.07;;;;;;;8.87;80.09;99216.66;4996991;28;20462;-57
2022/11/20 09:05:10;;;;;;;14.70;4.80;;;;;;;9.02;79.98;99224.28;4995875;28;20069;-57
2022/11/20 09:07:37;;;;;;;15.48;3.97;;;;;;;9.21;79.79;99225.81;4995743;28;20112;-57
2022/11/20 09:10:04;;;;;;;14.15;4.57;;;;;;;9.66;80.21;99221.84;4998961;28;20081;-57
2022/11/20 09:12:51;;;;;;;13.32;3.70;;;;;;;10.15;79.82;99219.50;4995581;28;20493;-58
2022/11/20 09:15:19;;;;;;;18.00;5.40;;;;;;;10.18;78.10;99219.47;4997565;28;20164;-59
2022/11/20 09:17:54;;;;;;;16.98;4.78;;;;;;;10.06;77.81;99222.22;4993999;28;20046;-57
2022/11/20 09:20:21;;;;;;;9.68;2.78;;;;;;;9.90;78.12;99232.78;4996723;28;20042;-57
2022/11/20 09:22:48;;;;;;;16.90;3.30;;;;;;;9.77;77.91;99230.31;4993550;28;20455;-58
2022/11/20 09:25:15;;;;;;;9.85;3.58;;;;;;;9.70;77.68;99227.84;4993198;28;20054;-60
2022/11/20 09:27:43;;;;;;;13.98;3.08;;;;;;;9.63;77.98;99216.75;4994815;28;20045;-54
2022/11/20 09:30:11;;;;;;;20.33;4.63;;;;;;;9.63;78.39;99216.75;4994072;28;20038;-58
2022/11/20 09:32:39;;;;;;;15.90;4.30;;;;;;;10.24;78.86;99219.34;4995614;28;20132;-57
2022/11/20 09:35:06;;;;;;;19.63;3.70;;;;;;;11.12;79.36;99218.84;4995949;28;20096;-56
2022/11/20 09:37:33;;;;;;;13.93;4.00;;;;;;;12.10;77.88;99222.97;4995336;28;20125;-57
2022/11/20 09:39:59;;;;;;;17.52;3.78;;;;;;;13.03;76.39;99218.13;4998159;28;20080;-56
2022/11/20 09:50:47;;;;;;;10.10;1.83;;;;;;;15.93;70.07;99211.56;5030393;28;21190;-57
2022/11/20 09:55:52;;;;;;;13.63;3.60;;;;;;;16.42;69.20;99205.34;5099371;27;21024;-57
2022/11/20 09:58:34;;;;;;;11.70;4.53;;;;;;;16.49;66.63;99202.50;5070796;28;20127;-59
2022/11/20 10:01:22;;;;;;;12.52;3.35;;;;;;;16.12;65.97;99204.81;5072200;28;20076;-55
2022/11/20 10:04:17;;;;;;;7.88;3.80;;;;;;;15.68;65.45;99209.88;5055274;28;20492;-55
2022/11/20 10:06:54;;;;;;;11.30;4.03;;;;;;;15.32;65.76;99217.31;5065307;28;20737;-56
2022/11/20 10:09:48;;;;;;;13.25;4.25;;;;;;;14.93;65.96;99213.44;5068011;28;20397;-58
2022/11/20 10:12:41;;;;;;;11.68;4.43;;;;;;;14.63;66.68;99212.63;5075169;28;20076;-55
2022/11/20 10:15:31;;;;;;;10.80;3.33;;;;;;;14.38;65.67;99213.44;5081649;28;20457;-55
2022/11/20 10:29:08;;;;;;;10.35;2.65;;;;;;;13.71;66.47;99217.22;5050428;28;20394;-54
2022/11/20 10:31:40;;;;;;;10.85;2.10;;;;;;;13.41;67.15;99211.94;5020911;28;20071;-57
2022/11/20 10:37:03;;;;;;;10.00;2.60;;;;;;;12.89;66.72;99215.03;5119940;27;20405;-55
2022/11/20 10:42:16;;;;;;;20.20;6.47;;;;;;;12.48;68.39;99218.63;5001265;28;20392;-55
2022/11/20 10:45:00;;;;;;;9.70;3.08;;;;;;;12.27;68.07;99226.03;5020623;28;20049;-55
2022/11/20 10:47:32;;;;;;;19.58;3.88;;;;;;;12.04;69.18;99227.38;5005152;28;20732;-58
2022/11/20 10:50:05;;;;;;;23.80;5.72;;;;;;;11.89;68.48;99225.13;4998656;28;20050;-52
2022/11/20 11:00:50;;;;;;;27.63;6.78;;;;;;;11.64;70.79;99215.25;5075313;27;20398;-57
2022/11/20 11:03:25;;;;;;;20.25;6.70;;;;;;;11.67;70.82;99220.38;5020568;28;20051;-51
2022/11/20 11:06:02;;;;;;;23.77;6.90;;;;;;;11.73;69.97;99209.88;5034872;28;20424;-56
2022/11/20 11:08:35;;;;;;;35.45;10.95;;;;;;;11.91;69.88;99212.94;5039998;28;20107;-58
2022/11/20 11:11:33;;;;;;;19.45;7.30;;;;;;;11.94;69.33;99205.09;5048870;28;20041;-57
2022/11/20 11:14:09;;;;;;;25.25;7.28;;;;;;;11.92;70.30;99204.31;5049429;28;20048;-53
2022/11/20 11:16:50;;;;;;;19.92;5.63;;;;;;;11.86;69.74;99207.00;5029599;28;20088;-57
2022/11/20 11:19:17;;;;;;;10.60;2.58;;;;;;;11.85;69.95;99213.09;5035515;28;20437;-58
2022/11/20 11:21:47;;;;;;;18.95;3.70;;;;;;;11.78;69.49;99213.22;5040322;28;20041;-56
2022/11/20 11:27:04;;;;;;;15.98;3.45;;;;;;;11.79;70.91;99227.88;5019658;27;20766;-57
2022/11/20 11:29:31;;;;;;;15.40;3.45;;;;;;;11.78;71.02;99233.97;5016043;28;20577;-52
2022/11/20 11:34:41;;;;;;;23.27;7.68;;;;;;;11.82;70.44;99235.63;5044941;27;20418;-56
2022/11/20 11:37:18;;;;;;;13.15;2.97;;;;;;;11.80;70.08;99237.41;5019598;28;20069;-55
2022/11/20 11:39:47;;;;;;;16.20;2.92;;;;;;;11.82;69.68;99230.44;5000335;28;20046;-57
2022/11/20 11:42:30;;;;;;;6.50;1.95;;;;;;;11.84;69.70;99238.19;5002712;28;20639;-58
2022/11/20 11:45:07;;;;;;;11.88;1.83;;;;;;;11.77;68.92;99237.47;5014381;28;20066;-58
2022/11/20 11:55:56;;;;;;;4.85;2.00;;;;;;;11.72;69.93;99223.72;5045648;28;20390;-58
2022/11/20 12:07:03;;;;;;;11.55;3.88;;;;;;;11.59;69.09;99207.56;5037884;28;20752;-56
2022/11/20 12:09:54;;;;;;;10.98;3.42;;;;;;;11.54;69.29;99205.06;5053787;28;20064;-55
2022/11/20 12:12:43;;;;;;;12.65;2.88;;;;;;;11.45;69.65;99207.81;5055837;28;20048;-57
2022/11/20 12:15:12;;;;;;;10.05;3.45;;;;;;;11.42;69.44;99205.31;5050122;28;20086;-57
2022/11/20 12:17:39;;;;;;;9.10;3.13;;;;;;;11.37;68.93;99201.94;5053845;28;20052;-56
2022/11/20 12:20:13;;;;;;;9.23;3.65;;;;;;;11.32;69.81;99209.84;5052490;28;20084;-56
2022/11/20 12:22:56;;;;;;;9.20;1.20;;;;;;;11.26;69.04;99213.41;5062632;28;20525;-57
2022/11/20 12:25:29;;;;;;;8.52;2.83;;;;;;;11.21;69.49;99202.25;5050395;28;20150;-58
2022/11/20 12:30:59;;;;;;;11.63;2.00;;;;;;;11.12;69.67;99198.09;5025313;27;20394;-57
2022/11/20 12:36:40;;;;;;;12.48;1.75;;;;;;;11.07;69.34;99209.44;4998999;28;20427;-57
2022/11/20 12:53:54;;;;;;;11.10;2.15;;;;;;;11.05;68.66;99231.03;5029711;28;20881;-53
2022/11/20 12:59:44;;;;;;;14.10;3.20;;;;;;;11.09;68.79;99224.06;5016931;28;20399;-56
2022/11/20 13:07:52;;;;;;;11.70;2.80;;;;;;;11.10;69.03;99224.91;5027417;28;20411;-54
2022/11/20 13:10:31;;;;;;;13.15;3.35;;;;;;;11.10;69.65;99222.31;4995627;28;20066;-55
2022/11/20 13:13:08;;;;;;;12.38;2.38;;;;;;;11.13;68.82;99230.03;5001309;28;20141;-55
2022/11/20 13:16:01;;;;;;;7.22;1.73;;;;;;;11.08;69.86;99217.16;5002671;28;20042;-55
2022/11/20 13:18:34;;;;;;;8.82;1.88;;;;;;;11.13;69.96;99209.31;5004397;28;20100;-54
2022/11/20 13:21:01;;;;;;;10.65;2.42;;;;;;;11.14;69.99;99211.00;5001749;28;20054;-57
2022/11/20 13:23:28;;;;;;;8.48;1.75;;;;;;;11.13;69.42;99207.59;5000764;28;20125;-54
2022/11/20 13:26:05;;;;;;;11.23;1.83;;;;;;;11.08;69.41;99208.56;5001091;28;20077;-55
2022/11/20 13:28:32;;;;;;;9.52;1.33;;;;;;;11.03;69.57;99219.84;5001674;28;20192;-55
2022/11/20 13:30:59;;;;;;;9.20;1.63;;;;;;;10.99;69.17;99212.16;5003816;28;20054;-57
2022/11/20 13:33:35;;;;;;;8.73;1.60;;;;;;;10.94;69.84;99217.41;5012709;28;20096;-55
2022/11/20 13:36:06;;;;;;;12.23;1.30;;;;;;;10.91;70.02;99215.72;5001684;28;20111;-55
2022/11/20 13:38:44;;;;;;;9.07;1.80;;;;;;;10.85;69.13;99225.34;5001032;28;20058;-55
2022/11/20 13:46:46;;;;;;;10.93;2.63;;;;;;;11.12;67.38;99220.56;5050356;28;20406;-54